createdAt,value
2019-01-26T00:01:45.517Z,78.90
2019-01-26T00:04:28.431Z,78.90
2019-01-26T00:07:10.032Z,79.00
2019-01-26T00:09:50.993Z,79.10
2019-01-26T00:12:32.907Z,79.00
2019-01-26T00:15:01.862Z,79.10
2019-01-26T00:17:50.595Z,79.10
2019-01-26T00:20:38.715Z,79.00
2019-01-26T00:23:26.790Z,79.00
2019-01-26T00:26:14.828Z,79.00
2019-01-26T00:29:02.882Z,79.20
2019-01-26T00:31:51.006Z,79.20
2019-01-26T00:34:39.035Z,79.40
2019-01-26T00:37:27.350Z,79.30
2019-01-26T00:40:15.590Z,79.30
2019-01-26T00:43:03.927Z,79.30
2019-01-26T00:45:52.253Z,79.40
2019-01-26T00:48:40.365Z,79.50
2019-01-26T00:51:28.703Z,79.50
2019-01-26T00:54:16.996Z,79.50
2019-01-26T00:57:05.304Z,79.50
2019-01-26T00:59:53.418Z,79.60
2019-01-26T01:02:22.473Z,79.60
2019-01-26T01:05:10.593Z,79.70
2019-01-26T01:07:58.630Z,79.70
2019-01-26T01:10:46.643Z,79.70
2019-01-26T01:13:35.056Z,79.80
2019-01-26T01:16:23.347Z,79.80
2019-01-26T01:19:11.450Z,79.80
2019-01-26T01:21:59.715Z,79.90
2019-01-26T01:24:47.710Z,79.80
2019-01-26T01:27:42.934Z,79.80
2019-01-26T01:30:31.398Z,79.80
2019-01-26T01:33:19.831Z,79.90
2019-01-26T01:36:07.829Z,79.90
2019-01-26T01:38:36.846Z,80.00
2019-01-26T01:41:25.131Z,80.00
2019-01-26T01:44:13.137Z,80.00
2019-01-26T01:47:01.260Z,80.00
2019-01-26T01:49:49.303Z,80.00
2019-01-26T01:52:37.419Z,80.10
2019-01-26T01:55:28.103Z,80.10
2019-01-26T01:58:16.410Z,80.10
2019-01-26T02:00:57.118Z,80.00
2019-01-26T02:03:37.420Z,80.00
2019-01-26T02:06:17.914Z,80.20
2019-01-26T02:08:58.532Z,80.80
2019-01-26T02:11:39.070Z,80.20
2019-01-26T02:14:19.720Z,80.30
2019-01-26T02:17:01.108Z,80.30
2019-01-26T02:19:41.900Z,80.40
2019-01-26T02:22:22.367Z,80.30
2019-01-26T02:25:03.175Z,80.40
2019-01-26T02:27:43.923Z,80.40
2019-01-26T02:30:24.721Z,80.40
2019-01-26T02:33:05.221Z,80.40
2019-01-26T02:35:46.034Z,80.40
2019-01-26T02:38:27.090Z,80.40
2019-01-26T02:41:07.518Z,80.70
2019-01-26T02:43:48.228Z,80.70
2019-01-26T02:46:28.933Z,80.60
2019-01-26T02:49:09.843Z,80.60
2019-01-26T02:51:50.617Z,80.60
2019-01-26T02:54:31.867Z,80.70
2019-01-26T02:57:00.643Z,80.80
2019-01-26T02:59:48.639Z,80.80
2019-01-26T03:02:51.183Z,80.80
2019-01-26T03:05:39.698Z,80.80
2019-01-26T03:08:27.792Z,80.80
2019-01-26T03:11:16.141Z,80.90
2019-01-26T03:14:04.336Z,80.90
2019-01-26T03:16:52.668Z,80.90
2019-01-26T03:19:40.688Z,80.90
2019-01-26T03:22:28.689Z,80.90
2019-01-26T03:25:16.774Z,80.90
2019-01-26T03:28:04.974Z,81.00
2019-01-26T03:30:52.991Z,81.00
2019-01-26T03:33:41.042Z,81.00
2019-01-26T03:36:10.208Z,81.00
2019-01-26T03:38:39.291Z,81.00
2019-01-26T03:41:27.625Z,81.20
2019-01-26T03:44:15.643Z,81.20
2019-01-26T03:47:03.713Z,81.20
2019-01-26T03:49:51.698Z,81.30
2019-01-26T03:52:40.056Z,81.30
2019-01-26T03:55:28.348Z,81.30
2019-01-26T03:58:09.040Z,81.30
2019-01-26T04:00:50.247Z,81.20
2019-01-26T04:03:31.211Z,81.30
2019-01-26T04:06:15.434Z,81.30
2019-01-26T04:08:56.590Z,81.30
2019-01-26T04:11:37.454Z,81.30
2019-01-26T04:14:18.938Z,81.40
2019-01-26T04:17:00.274Z,81.40
2019-01-26T04:19:41.019Z,81.40
2019-01-26T04:22:21.772Z,81.40
2019-01-26T04:25:02.818Z,81.50
2019-01-26T04:27:43.601Z,81.50
2019-01-26T04:30:22.761Z,81.50
2019-01-26T04:33:11.329Z,81.60
2019-01-26T04:35:59.410Z,81.60
2019-01-26T04:38:47.413Z,81.60
2019-01-26T04:41:35.406Z,81.60
2019-01-26T04:44:23.682Z,81.70
2019-01-26T04:46:52.949Z,81.60
2019-01-26T04:49:40.978Z,81.60
2019-01-26T04:52:21.992Z,81.60
2019-01-26T04:55:02.675Z,81.60
2019-01-26T04:57:43.511Z,81.70
2019-01-26T05:00:23.813Z,81.70
2019-01-26T05:03:04.748Z,81.80
2019-01-26T05:05:46.291Z,81.80
2019-01-26T05:08:27.581Z,81.80
2019-01-26T05:11:08.118Z,81.80
2019-01-26T05:13:48.759Z,81.90
2019-01-26T05:16:31.162Z,81.80
2019-01-26T05:19:11.490Z,81.90
2019-01-26T05:21:52.253Z,81.90
2019-01-26T05:24:32.998Z,81.90
2019-01-26T05:27:13.830Z,81.80
2019-01-26T05:29:54.555Z,81.80
2019-01-26T05:32:35.006Z,81.90
2019-01-26T05:35:16.754Z,81.80
2019-01-26T05:37:57.634Z,81.80
2019-01-26T05:40:38.231Z,81.80
2019-01-26T05:43:19.139Z,81.80
2019-01-26T05:45:59.798Z,81.80
2019-01-26T05:48:40.947Z,81.90
2019-01-26T05:51:21.666Z,81.80
2019-01-26T05:54:02.412Z,81.80
2019-01-26T05:56:42.858Z,81.90
2019-01-26T05:59:23.639Z,81.90
2019-01-26T06:02:04.263Z,82.00
2019-01-26T06:04:44.839Z,81.90
2019-01-26T06:07:25.624Z,81.90
2019-01-26T06:10:06.338Z,82.00
2019-01-26T06:12:48.280Z,82.00
2019-01-26T06:15:28.928Z,82.10
2019-01-26T06:20:51.912Z,82.00
2019-01-26T06:23:32.640Z,82.00
2019-01-26T06:26:13.405Z,82.00
2019-01-26T06:28:54.675Z,82.10
2019-01-26T06:31:43.169Z,82.10
2019-01-26T06:37:21.790Z,82.10
2019-01-26T06:40:31.357Z,82.10
2019-01-26T06:43:19.365Z,82.90
2019-01-26T06:46:07.429Z,82.20
2019-01-26T06:52:12.839Z,82.20
2019-01-26T06:58:32.205Z,82.20
2019-01-26T07:07:20.325Z,82.30
2019-01-26T07:10:08.516Z,82.30
2019-01-26T07:12:56.574Z,82.30
2019-01-26T07:15:44.908Z,82.30
2019-01-26T07:18:32.992Z,82.30
2019-01-26T07:21:01.729Z,82.30
2019-01-26T07:23:49.728Z,82.30
2019-01-26T07:26:37.975Z,82.40
2019-01-26T07:29:25.980Z,82.40
2019-01-26T07:32:14.101Z,82.50
2019-01-26T07:35:02.078Z,82.50
2019-01-26T07:37:50.382Z,82.50
2019-01-26T07:40:38.633Z,82.40
2019-01-26T07:43:26.633Z,82.50
2019-01-26T07:46:14.632Z,82.50
2019-01-26T07:49:02.885Z,82.60
2019-01-26T07:51:50.973Z,82.60
2019-01-26T07:54:58.046Z,82.60
2019-01-26T07:57:46.354Z,82.60
2019-01-26T08:00:46.427Z,82.60
2019-01-26T08:03:24.055Z,82.60
2019-01-26T08:06:26.146Z,82.60
2019-01-26T08:09:01.803Z,82.70
2019-01-26T08:11:49.992Z,82.70
2019-01-26T08:14:38.065Z,82.70
2019-01-26T08:17:26.174Z,82.80
2019-01-26T08:20:15.513Z,82.80
2019-01-26T08:23:03.598Z,82.80
2019-01-26T08:25:52.031Z,82.80
2019-01-26T08:28:40.354Z,82.80
2019-01-26T08:31:21.752Z,82.80
2019-01-26T08:34:03.015Z,82.80
2019-01-26T08:36:43.797Z,82.90
2019-01-26T08:39:24.744Z,83.00
2019-01-26T08:42:05.454Z,83.10
2019-01-26T08:44:46.149Z,83.10
2019-01-26T08:47:27.267Z,83.10
2019-01-26T08:50:07.826Z,83.10
2019-01-26T08:52:48.356Z,83.30
2019-01-26T08:55:29.036Z,83.30
2019-01-26T08:58:10.159Z,83.30
2019-01-26T09:00:50.593Z,83.30
2019-01-26T09:03:50.495Z,83.40
2019-01-26T09:06:37.330Z,83.30
2019-01-26T09:09:18.563Z,83.40
2019-01-26T09:11:59.449Z,83.40
2019-01-26T09:14:40.432Z,83.50
2019-01-26T09:17:21.637Z,83.40
2019-01-26T09:20:02.335Z,84.20
2019-01-26T09:22:43.158Z,83.50
2019-01-26T09:25:24.237Z,83.60
2019-01-26T09:28:04.826Z,83.60
2019-01-26T09:30:45.787Z,83.60
2019-01-26T09:33:26.181Z,83.60
2019-01-26T09:36:07.038Z,83.70
2019-01-26T09:38:47.585Z,83.80
2019-01-26T09:41:28.336Z,83.80
2019-01-26T09:44:09.487Z,83.80
2019-01-26T09:46:48.717Z,83.90
2019-01-26T09:49:36.838Z,84.00
2019-01-26T09:52:24.893Z,84.00
2019-01-26T09:55:13.027Z,83.90
2019-01-26T09:58:01.079Z,84.00
2019-01-26T10:00:49.082Z,84.00
2019-01-26T10:03:37.146Z,84.10
2019-01-26T10:06:25.313Z,84.10
2019-01-26T10:09:13.457Z,84.00
2019-01-26T10:12:01.538Z,84.20
2019-01-26T10:14:49.546Z,84.20
2019-01-26T10:17:37.579Z,84.20
2019-01-26T10:20:26.707Z,84.30
2019-01-26T10:23:07.910Z,84.30
2019-01-26T10:25:36.880Z,84.30
2019-01-26T10:28:25.108Z,84.20
2019-01-26T10:31:13.095Z,84.40
2019-01-26T10:34:01.134Z,84.30
2019-01-26T10:37:08.213Z,84.40
2019-01-26T10:39:37.263Z,84.50
2019-01-26T10:42:27.280Z,84.40
2019-01-26T10:45:15.586Z,84.40
2019-01-26T10:48:03.905Z,84.40
2019-01-26T10:50:52.268Z,84.30
2019-01-26T10:53:40.544Z,84.40
2019-01-26T10:56:28.858Z,84.40
2019-01-26T10:59:16.883Z,84.40
2019-01-26T11:02:06.839Z,84.50
2019-01-26T11:04:55.319Z,84.50
2019-01-26T11:07:43.703Z,84.50
2019-01-26T11:10:31.787Z,84.60
2019-01-26T11:13:34.880Z,84.60
2019-01-26T11:15:51.589Z,84.60
2019-01-26T11:24:15.942Z,84.70
2019-01-26T11:27:04.011Z,84.70
2019-01-26T11:29:52.251Z,84.70
2019-01-26T11:32:32.765Z,84.80
2019-01-26T11:35:13.756Z,84.80
2019-01-26T11:37:54.783Z,84.80
2019-01-26T11:40:35.981Z,84.80
2019-01-26T11:43:16.724Z,84.90
2019-01-26T11:46:16.345Z,84.90
2019-01-26T11:48:57.079Z,85.00
2019-01-26T11:52:04.163Z,85.00
2019-01-26T11:55:11.211Z,85.00
2019-01-26T11:57:59.315Z,85.00
2019-01-26T12:04:23.082Z,85.00
2019-01-26T12:07:30.438Z,85.10
2019-01-26T12:10:18.397Z,85.10
2019-01-26T12:13:06.418Z,85.20
2019-01-26T12:15:54.372Z,85.10
2019-01-26T12:18:44.927Z,85.10
2019-01-26T12:21:32.978Z,85.20
2019-01-26T12:24:01.738Z,85.20
2019-01-26T12:26:50.024Z,85.10
2019-01-26T12:32:32.540Z,85.00
2019-01-26T12:35:20.879Z,85.10
2019-01-26T12:38:08.881Z,85.00
2019-01-26T12:40:56.903Z,85.00
2019-01-26T12:43:45.179Z,84.90
2019-01-26T12:46:33.183Z,85.00
2019-01-26T12:49:21.186Z,85.00
2019-01-26T12:52:09.244Z,85.00
2019-01-26T12:54:57.274Z,85.00
2019-01-26T12:57:45.356Z,85.00
2019-01-26T13:00:33.343Z,85.00
2019-01-26T13:03:21.343Z,85.00
2019-01-26T13:06:09.665Z,85.00
2019-01-26T13:08:57.666Z,85.00
2019-01-26T13:11:46.218Z,85.00
2019-01-26T13:14:34.235Z,85.00
2019-01-26T13:17:22.319Z,85.00
2019-01-26T13:20:10.759Z,85.00
2019-01-26T13:22:58.786Z,84.90
2019-01-26T13:25:47.100Z,85.00
2019-01-26T13:28:35.210Z,85.00
2019-01-26T13:31:23.184Z,85.00
2019-01-26T13:34:04.177Z,85.00
2019-01-26T13:36:45.195Z,85.00
2019-01-26T13:39:25.962Z,85.00
2019-01-26T13:42:07.085Z,85.00
2019-01-26T13:44:47.511Z,85.00
2019-01-26T13:47:28.579Z,85.00
2019-01-26T13:49:57.366Z,85.00
2019-01-26T13:52:45.465Z,85.00
2019-01-26T13:55:33.492Z,84.90
2019-01-26T13:58:21.756Z,84.90
2019-01-26T14:01:10.038Z,84.90
2019-01-26T14:03:58.034Z,84.90
2019-01-26T14:06:46.040Z,84.90
2019-01-26T14:09:34.121Z,84.90
2019-01-26T14:12:22.400Z,84.90
2019-01-26T14:15:11.072Z,84.90
2019-01-26T14:17:59.334Z,84.80
2019-01-26T14:21:08.243Z,84.90
2019-01-26T14:23:56.531Z,84.80
2019-01-26T14:26:49.731Z,84.90
2019-01-26T14:29:34.864Z,84.90
2019-01-26T14:32:03.691Z,84.90
2019-01-26T14:34:44.534Z,84.90
2019-01-26T14:37:25.166Z,84.90
2019-01-26T14:39:53.969Z,84.90
2019-01-26T14:42:42.259Z,84.90
2019-01-26T14:45:30.284Z,84.90
2019-01-26T14:48:18.359Z,84.90
2019-01-26T14:51:06.386Z,84.90
2019-01-26T14:53:54.523Z,84.90
2019-01-26T14:56:35.832Z,84.90
2019-01-26T14:59:16.573Z,84.90
2019-01-26T15:01:57.663Z,84.90
2019-01-26T15:04:38.578Z,84.90
2019-01-26T15:07:19.039Z,84.90
2019-01-26T15:09:59.819Z,84.90
2019-01-26T15:12:40.224Z,85.00
2019-01-26T15:15:21.004Z,85.00
2019-01-26T15:18:01.606Z,84.90
2019-01-26T15:20:42.506Z,84.80
2019-01-26T15:23:23.136Z,84.90
2019-01-26T15:26:03.809Z,85.40
2019-01-26T15:28:44.992Z,84.90
2019-01-26T15:31:25.917Z,84.90
2019-01-26T15:34:06.700Z,84.90
2019-01-26T15:36:47.545Z,84.90
2019-01-26T15:39:28.663Z,84.90
2019-01-26T15:42:09.527Z,84.90
2019-01-26T15:44:50.188Z,84.90
2019-01-26T15:47:31.167Z,84.90
2019-01-26T15:50:13.111Z,85.00
2019-01-26T15:55:37.020Z,84.90
2019-01-26T15:58:17.883Z,84.80
2019-01-26T16:00:58.744Z,84.80
2019-01-26T16:06:26.073Z,84.80
2019-01-26T16:09:06.562Z,84.80
2019-01-26T16:11:47.282Z,84.90
2019-01-26T16:14:28.291Z,84.80
2019-01-26T16:17:09.033Z,84.80
2019-01-26T16:19:50.177Z,84.70
2019-01-26T16:22:31.110Z,84.70
2019-01-26T16:25:11.703Z,84.70
2019-01-26T16:27:52.683Z,84.70
2019-01-26T16:30:33.293Z,84.60
2019-01-26T16:33:13.959Z,84.60
2019-01-26T16:35:54.683Z,84.60
2019-01-26T16:38:35.896Z,84.60
2019-01-26T16:41:16.440Z,84.60
2019-01-26T16:43:56.998Z,84.50
2019-01-26T16:46:37.504Z,84.50
2019-01-26T16:49:18.313Z,84.60
2019-01-26T16:51:59.764Z,84.50
2019-01-26T16:54:40.120Z,84.60
2019-01-26T16:57:20.853Z,84.50
2019-01-26T17:00:01.518Z,84.60
2019-01-26T17:02:42.266Z,84.60
2019-01-26T17:05:25.951Z,84.70
2019-01-26T17:08:05.527Z,84.60
2019-01-26T17:10:45.962Z,84.70
2019-01-26T17:13:27.049Z,84.70
2019-01-26T17:16:09.018Z,84.70
2019-01-26T17:18:50.370Z,84.70
2019-01-26T17:21:31.365Z,84.80
2019-01-26T17:24:11.967Z,84.70
2019-01-26T17:26:53.037Z,84.80
2019-01-26T17:29:34.078Z,84.80
2019-01-26T17:32:14.857Z,84.90
2019-01-26T17:34:55.505Z,84.80
2019-01-26T17:37:36.260Z,84.80
2019-01-26T17:40:17.102Z,84.90
2019-01-26T17:42:45.857Z,84.80
2019-01-26T17:45:33.881Z,84.80
2019-01-26T17:48:21.948Z,84.80
2019-01-26T17:51:10.045Z,84.80
2019-01-26T17:53:58.070Z,84.80
2019-01-26T17:56:46.063Z,84.80
2019-01-26T17:59:34.124Z,84.80
2019-01-26T18:02:22.458Z,84.80
2019-01-26T18:05:10.497Z,84.90
2019-01-26T18:07:39.410Z,84.90
2019-01-26T18:10:27.506Z,84.90
2019-01-26T18:13:15.649Z,84.90
2019-01-26T18:16:03.771Z,84.90
2019-01-26T18:18:52.026Z,84.90
2019-01-26T18:27:19.395Z,83.30
2019-01-26T18:29:48.228Z,84.60
2019-01-26T18:32:36.638Z,84.80
2019-01-26T18:35:24.832Z,84.90
2019-01-26T18:38:13.212Z,84.90
2019-01-26T18:41:01.265Z,85.60
2019-01-26T18:43:49.397Z,85.00
2019-01-26T18:46:37.394Z,85.00
2019-01-26T18:49:25.560Z,84.90
2019-01-26T18:52:13.614Z,85.10
2019-01-26T18:55:01.637Z,85.10
2019-01-26T18:57:49.833Z,85.00
2019-01-26T19:00:39.261Z,85.80
2019-01-26T19:03:29.655Z,85.00
2019-01-26T19:06:17.670Z,85.10
2019-01-26T19:09:07.942Z,85.10
2019-01-26T19:11:55.975Z,85.20
2019-01-26T19:14:43.977Z,85.10
2019-01-26T19:17:32.269Z,85.20
2019-01-26T19:20:21.255Z,85.20
2019-01-26T19:23:09.265Z,85.20
2019-01-26T19:25:57.345Z,85.20
2019-01-26T19:28:45.391Z,85.20
2019-01-26T19:31:33.464Z,85.20
2019-01-26T19:34:14.089Z,85.20
2019-01-26T19:36:55.051Z,85.20
2019-01-26T19:39:35.717Z,85.30
2019-01-26T19:42:16.449Z,85.20
2019-01-26T19:44:57.439Z,85.30
2019-01-26T19:47:38.456Z,85.30
2019-01-26T19:50:19.892Z,85.30
2019-01-26T19:53:00.596Z,85.30
2019-01-26T19:55:41.331Z,85.30
2019-01-26T19:58:21.912Z,85.30
2019-01-26T20:01:02.658Z,85.20
2019-01-26T20:03:31.460Z,85.20
2019-01-26T20:06:19.793Z,85.20
2019-01-26T20:09:09.498Z,85.30
2019-01-26T20:11:38.974Z,85.30
2019-01-26T20:14:27.126Z,85.30
2019-01-26T20:17:15.550Z,85.30
2019-01-26T20:20:03.697Z,85.30
2019-01-26T20:22:51.729Z,85.20
2019-01-26T20:25:39.983Z,85.20
2019-01-26T20:28:27.989Z,85.20
2019-01-26T20:31:16.008Z,85.20
2019-01-26T20:34:04.101Z,85.10
2019-01-26T20:36:45.776Z,85.10
2019-01-26T20:39:26.942Z,85.10
2019-01-26T20:41:56.134Z,85.20
2019-01-26T20:44:44.233Z,85.10
2019-01-26T20:50:21.397Z,85.30
2019-01-26T20:53:09.702Z,85.20
2019-01-26T20:55:57.773Z,85.20
2019-01-26T20:58:46.244Z,85.40
2019-01-26T21:01:34.357Z,85.30
2019-01-26T21:04:22.654Z,85.40
2019-01-26T21:10:08.046Z,85.40
2019-01-26T21:12:56.050Z,85.40
2019-01-26T21:15:44.041Z,85.40
2019-01-26T21:18:32.055Z,85.50
2019-01-26T21:21:20.040Z,85.40
2019-01-26T21:24:08.119Z,85.40
2019-01-26T21:26:56.221Z,85.30
2019-01-26T21:29:44.483Z,85.40
2019-01-26T21:32:24.993Z,85.40
2019-01-26T21:35:05.614Z,85.40
2019-01-26T21:37:34.472Z,85.40
2019-01-26T21:40:23.899Z,85.50
2019-01-26T21:43:11.890Z,85.40
2019-01-26T21:46:00.234Z,85.40
2019-01-26T21:48:48.219Z,85.40
2019-01-26T21:51:39.135Z,85.40
2019-01-26T21:54:26.495Z,85.40
2019-01-26T21:57:14.510Z,85.30
2019-01-26T22:00:02.592Z,85.20
2019-01-26T22:02:50.673Z,85.10
2019-01-26T22:05:38.678Z,85.00
2019-01-26T22:08:26.968Z,85.00
2019-01-26T22:11:14.977Z,84.90
2019-01-26T22:14:03.339Z,85.50
2019-01-26T22:16:51.610Z,84.90
2019-01-26T22:19:21.869Z,85.00
2019-01-26T22:22:10.409Z,85.10
2019-01-26T22:24:58.423Z,85.10
2019-01-26T22:27:39.383Z,85.20
2019-01-26T22:30:12.268Z,85.40
2019-01-26T22:33:00.350Z,85.40
2019-01-26T22:35:48.380Z,85.40
2019-01-26T22:38:36.405Z,85.30
2019-01-26T22:44:16.196Z,85.40
2019-01-26T22:47:04.299Z,85.40
2019-01-26T22:49:52.305Z,85.40
2019-01-26T22:52:40.399Z,85.40
2019-01-26T22:55:28.459Z,85.40
2019-01-26T22:58:16.479Z,85.50
2019-01-26T23:01:23.789Z,85.50
2019-01-26T23:04:31.042Z,85.50
2019-01-26T23:07:38.282Z,85.50
2019-01-26T23:10:45.552Z,85.50
2019-01-26T23:13:36.025Z,85.50
2019-01-26T23:16:43.274Z,85.50
2019-01-26T23:19:50.534Z,85.50
2019-01-26T23:22:31.071Z,85.50
2019-01-26T23:25:24.140Z,85.60
2019-01-26T23:28:14.827Z,85.60
2019-01-26T23:31:22.086Z,85.50
2019-01-26T23:34:10.105Z,85.50
2019-01-26T23:36:58.118Z,85.60
2019-01-26T23:39:46.450Z,85.60
2019-01-26T23:42:34.418Z,85.60
2019-01-26T23:45:22.517Z,85.60
2019-01-26T23:48:10.526Z,85.50
2019-01-26T23:50:58.602Z,85.60
2019-01-26T23:53:46.864Z,85.50
2019-01-26T23:56:34.869Z,85.50
2019-01-26T23:59:22.861Z,85.50
